sensor_id;sensor_type;location;lat;lon;timestamp;temperature;humidity
8527;DHT22;4301;48.362;8.478;2022-08-04T00:00:20;18.00;99.90
8527;DHT22;4301;48.362;8.478;2022-08-04T00:03:01;18.10;99.90
8527;DHT22;4301;48.362;8.478;2022-08-04T00:05:40;18.10;99.90
8527;DHT22;4301;48.362;8.478;2022-08-04T00:08:18;18.10;99.90
8527;DHT22;4301;48.362;8.478;2022-08-04T00:10:48;18.00;99.90
8527;DHT22;4301;48.362;8.478;2022-08-04T00:13:16;18.00;99.90
8527;DHT22;4301;48.362;8.478;2022-08-04T00:15:51;18.00;99.90
8527;DHT22;4301;48.362;8.478;2022-08-04T00:18:22;18.00;99.90
8527;DHT22;4301;48.362;8.478;2022-08-04T00:20:54;18.00;99.90
8527;DHT22;4301;48.362;8.478;2022-08-04T00:23:24;18.00;99.90
8527;DHT22;4301;48.362;8.478;2022-08-04T00:25:52;17.90;99.90
8527;DHT22;4301;48.362;8.478;2022-08-04T00:28:20;17.80;99.90
8527;DHT22;4301;48.362;8.478;2022-08-04T00:30:47;17.80;99.90
8527;DHT22;4301;48.362;8.478;2022-08-04T00:33:18;17.80;99.90
8527;DHT22;4301;48.362;8.478;2022-08-04T00:35:45;17.70;99.90
8527;DHT22;4301;48.362;8.478;2022-08-04T00:38:16;17.60;99.90
8527;DHT22;4301;48.362;8.478;2022-08-04T00:40:49;17.60;99.90
8527;DHT22;4301;48.362;8.478;2022-08-04T00:43:22;17.60;99.90
8527;DHT22;4301;48.362;8.478;2022-08-04T00:46:22;17.50;99.90
8527;DHT22;4301;48.362;8.478;2022-08-04T00:52:36;17.50;99.90
8527;DHT22;4301;48.362;8.478;2022-08-04T00:55:30;17.50;99.90
8527;DHT22;4301;48.362;8.478;2022-08-04T00:58:31;17.50;99.90
8527;DHT22;4301;48.362;8.478;2022-08-04T01:01:02;17.30;99.90
8527;DHT22;4301;48.362;8.478;2022-08-04T01:03:47;17.30;99.90
8527;DHT22;4301;48.362;8.478;2022-08-04T01:06:23;17.30;99.90
8527;DHT22;4301;48.362;8.478;2022-08-04T01:09:06;17.30;99.90
8527;DHT22;4301;48.362;8.478;2022-08-04T01:11:49;17.20;99.90
8527;DHT22;4301;48.362;8.478;2022-08-04T01:14:36;17.20;99.90
8527;DHT22;4301;48.362;8.478;2022-08-04T01:17:17;17.20;99.90
8527;DHT22;4301;48.362;8.478;2022-08-04T01:20:04;17.20;99.90
8527;DHT22;4301;48.362;8.478;2022-08-04T01:26:07;17.10;99.90
8527;DHT22;4301;48.362;8.478;2022-08-04T01:31:33;17.00;99.90
8527;DHT22;4301;48.362;8.478;2022-08-04T01:34:04;17.00;99.90
8527;DHT22;4301;48.362;8.478;2022-08-04T01:36:33;17.00;99.90
8527;DHT22;4301;48.362;8.478;2022-08-04T01:39:01;16.90;99.90
8527;DHT22;4301;48.362;8.478;2022-08-04T01:41:51;16.90;99.90
8527;DHT22;4301;48.362;8.478;2022-08-04T01:44:18;16.80;99.90
8527;DHT22;4301;48.362;8.478;2022-08-04T01:46:49;16.80;99.90
8527;DHT22;4301;48.362;8.478;2022-08-04T01:49:20;16.70;99.90
8527;DHT22;4301;48.362;8.478;2022-08-04T01:51:49;16.70;99.90
8527;DHT22;4301;48.362;8.478;2022-08-04T01:54:17;16.70;99.90
8527;DHT22;4301;48.362;8.478;2022-08-04T01:56:46;16.60;99.90
8527;DHT22;4301;48.362;8.478;2022-08-04T01:59:19;16.60;99.90
8527;DHT22;4301;48.362;8.478;2022-08-04T02:01:48;16.70;99.90
8527;DHT22;4301;48.362;8.478;2022-08-04T02:04:17;16.60;99.90
8527;DHT22;4301;48.362;8.478;2022-08-04T02:06:55;16.50;99.90
8527;DHT22;4301;48.362;8.478;2022-08-04T02:09:31;16.50;99.90
8527;DHT22;4301;48.362;8.478;2022-08-04T02:12:04;16.50;99.90
8527;DHT22;4301;48.362;8.478;2022-08-04T02:14:40;16.50;99.90
8527;DHT22;4301;48.362;8.478;2022-08-04T02:17:14;16.50;99.90
8527;DHT22;4301;48.362;8.478;2022-08-04T02:19:54;16.40;99.90
8527;DHT22;4301;48.362;8.478;2022-08-04T02:22:27;16.40;99.90
8527;DHT22;4301;48.362;8.478;2022-08-04T02:25:00;16.40;99.90
8527;DHT22;4301;48.362;8.478;2022-08-04T02:27:33;16.30;99.90
8527;DHT22;4301;48.362;8.478;2022-08-04T02:30:04;16.30;99.90
8527;DHT22;4301;48.362;8.478;2022-08-04T02:32:35;16.40;99.90
8527;DHT22;4301;48.362;8.478;2022-08-04T02:35:06;16.30;99.90
8527;DHT22;4301;48.362;8.478;2022-08-04T02:37:34;16.30;99.90
8527;DHT22;4301;48.362;8.478;2022-08-04T02:40:04;16.30;99.90
8527;DHT22;4301;48.362;8.478;2022-08-04T02:42:33;16.30;99.90
8527;DHT22;4301;48.362;8.478;2022-08-04T02:45:00;16.20;99.90
8527;DHT22;4301;48.362;8.478;2022-08-04T02:47:28;16.20;99.90
8527;DHT22;4301;48.362;8.478;2022-08-04T02:49:57;16.20;99.90
8527;DHT22;4301;48.362;8.478;2022-08-04T02:52:25;16.10;99.90
8527;DHT22;4301;48.362;8.478;2022-08-04T02:54:55;16.10;99.90
8527;DHT22;4301;48.362;8.478;2022-08-04T02:57:23;16.10;99.90
8527;DHT22;4301;48.362;8.478;2022-08-04T03:00:06;16.00;99.90
8527;DHT22;4301;48.362;8.478;2022-08-04T03:02:46;16.00;99.90
8527;DHT22;4301;48.362;8.478;2022-08-04T03:05:19;16.00;99.90
8527;DHT22;4301;48.362;8.478;2022-08-04T03:11:15;16.10;99.90
8527;DHT22;4301;48.362;8.478;2022-08-04T03:14:10;16.00;99.90
8527;DHT22;4301;48.362;8.478;2022-08-04T03:17:22;16.00;99.90
8527;DHT22;4301;48.362;8.478;2022-08-04T03:23:12;15.90;99.90
8527;DHT22;4301;48.362;8.478;2022-08-04T03:26:12;15.90;99.90
8527;DHT22;4301;48.362;8.478;2022-08-04T03:29:10;15.90;99.90
8527;DHT22;4301;48.362;8.478;2022-08-04T03:35:04;15.90;99.90
8527;DHT22;4301;48.362;8.478;2022-08-04T03:37:54;15.80;99.90
8527;DHT22;4301;48.362;8.478;2022-08-04T03:50:05;15.80;99.90
8527;DHT22;4301;48.362;8.478;2022-08-04T03:52:55;15.80;99.90
8527;DHT22;4301;48.362;8.478;2022-08-04T03:55:45;15.70;99.90
8527;DHT22;4301;48.362;8.478;2022-08-04T04:01:37;15.60;99.90
8527;DHT22;4301;48.362;8.478;2022-08-04T04:04:32;15.60;99.90
8527;DHT22;4301;48.362;8.478;2022-08-04T04:07:34;15.60;99.90
8527;DHT22;4301;48.362;8.478;2022-08-04T04:10:18;15.50;99.90
8527;DHT22;4301;48.362;8.478;2022-08-04T04:13:08;15.50;99.90
8527;DHT22;4301;48.362;8.478;2022-08-04T04:16:06;15.50;99.90
8527;DHT22;4301;48.362;8.478;2022-08-04T04:19:04;15.40;99.90
8527;DHT22;4301;48.362;8.478;2022-08-04T04:21:56;15.40;99.90
8527;DHT22;4301;48.362;8.478;2022-08-04T04:24:35;15.40;99.90
8527;DHT22;4301;48.362;8.478;2022-08-04T04:27:15;15.40;99.90
8527;DHT22;4301;48.362;8.478;2022-08-04T04:30:00;15.40;99.90
8527;DHT22;4301;48.362;8.478;2022-08-04T04:32:38;15.40;99.90
8527;DHT22;4301;48.362;8.478;2022-08-04T04:35:18;15.40;99.90
8527;DHT22;4301;48.362;8.478;2022-08-04T04:38:02;15.40;99.90
8527;DHT22;4301;48.362;8.478;2022-08-04T04:40:40;15.50;99.90
8527;DHT22;4301;48.362;8.478;2022-08-04T04:43:16;15.50;99.90
8527;DHT22;4301;48.362;8.478;2022-08-04T04:45:54;15.50;99.90
8527;DHT22;4301;48.362;8.478;2022-08-04T04:48:35;15.50;99.90
8527;DHT22;4301;48.362;8.478;2022-08-04T04:51:25;15.60;99.90
8527;DHT22;4301;48.362;8.478;2022-08-04T04:54:04;15.50;99.90
8527;DHT22;4301;48.362;8.478;2022-08-04T04:56:41;15.60;99.90
8527;DHT22;4301;48.362;8.478;2022-08-04T04:59:12;15.70;99.90
8527;DHT22;4301;48.362;8.478;2022-08-04T05:02:14;15.60;99.90
8527;DHT22;4301;48.362;8.478;2022-08-04T05:05:14;15.70;99.90
8527;DHT22;4301;48.362;8.478;2022-08-04T05:08:15;15.80;99.90
8527;DHT22;4301;48.362;8.478;2022-08-04T05:10:58;15.90;99.90
8527;DHT22;4301;48.362;8.478;2022-08-04T05:13:35;16.00;99.90
8527;DHT22;4301;48.362;8.478;2022-08-04T05:16:08;16.10;99.90
8527;DHT22;4301;48.362;8.478;2022-08-04T05:18:39;16.20;99.90
8527;DHT22;4301;48.362;8.478;2022-08-04T05:21:24;16.30;99.90
8527;DHT22;4301;48.362;8.478;2022-08-04T05:23:57;16.30;99.90
8527;DHT22;4301;48.362;8.478;2022-08-04T05:26:31;16.40;99.90
8527;DHT22;4301;48.362;8.478;2022-08-04T05:29:02;16.40;99.90
8527;DHT22;4301;48.362;8.478;2022-08-04T05:31:35;16.50;99.90
8527;DHT22;4301;48.362;8.478;2022-08-04T05:34:07;16.60;99.90
8527;DHT22;4301;48.362;8.478;2022-08-04T05:36:38;16.70;99.90
8527;DHT22;4301;48.362;8.478;2022-08-04T05:39:10;16.70;99.90
8527;DHT22;4301;48.362;8.478;2022-08-04T05:41:41;16.80;99.90
8527;DHT22;4301;48.362;8.478;2022-08-04T05:44:09;16.90;99.90
8527;DHT22;4301;48.362;8.478;2022-08-04T05:46:37;17.00;99.90
8527;DHT22;4301;48.362;8.478;2022-08-04T05:49:05;17.10;99.90
8527;DHT22;4301;48.362;8.478;2022-08-04T05:51:34;17.20;99.90
8527;DHT22;4301;48.362;8.478;2022-08-04T05:54:02;17.30;99.90
8527;DHT22;4301;48.362;8.478;2022-08-04T05:56:29;17.40;99.90
8527;DHT22;4301;48.362;8.478;2022-08-04T05:58:59;17.50;99.90
8527;DHT22;4301;48.362;8.478;2022-08-04T06:01:28;17.60;99.90
8527;DHT22;4301;48.362;8.478;2022-08-04T06:03:58;17.70;99.90
8527;DHT22;4301;48.362;8.478;2022-08-04T06:06:26;17.80;99.90
8527;DHT22;4301;48.362;8.478;2022-08-04T06:08:53;18.00;99.90
8527;DHT22;4301;48.362;8.478;2022-08-04T06:11:21;18.10;99.90
8527;DHT22;4301;48.362;8.478;2022-08-04T06:13:52;18.30;99.90
8527;DHT22;4301;48.362;8.478;2022-08-04T06:16:24;18.40;99.90
8527;DHT22;4301;48.362;8.478;2022-08-04T06:18:53;18.50;99.90
8527;DHT22;4301;48.362;8.478;2022-08-04T06:21:23;18.70;99.90
8527;DHT22;4301;48.362;8.478;2022-08-04T06:23:54;18.90;99.90
8527;DHT22;4301;48.362;8.478;2022-08-04T06:26:22;19.10;99.90
8527;DHT22;4301;48.362;8.478;2022-08-04T06:28:51;19.20;99.90
8527;DHT22;4301;48.362;8.478;2022-08-04T06:31:20;19.40;99.90
8527;DHT22;4301;48.362;8.478;2022-08-04T06:34:09;19.60;99.90
8527;DHT22;4301;48.362;8.478;2022-08-04T06:36:37;19.80;99.90
8527;DHT22;4301;48.362;8.478;2022-08-04T06:39:06;20.00;99.90
8527;DHT22;4301;48.362;8.478;2022-08-04T06:41:34;20.20;99.90
8527;DHT22;4301;48.362;8.478;2022-08-04T06:44:04;20.40;99.90
8527;DHT22;4301;48.362;8.478;2022-08-04T06:46:36;20.70;99.90
8527;DHT22;4301;48.362;8.478;2022-08-04T06:49:04;21.00;99.90
8527;DHT22;4301;48.362;8.478;2022-08-04T06:51:32;21.20;99.90
8527;DHT22;4301;48.362;8.478;2022-08-04T06:53:59;21.50;99.90
8527;DHT22;4301;48.362;8.478;2022-08-04T06:56:29;21.70;99.90
8527;DHT22;4301;48.362;8.478;2022-08-04T06:58:57;22.00;99.90
8527;DHT22;4301;48.362;8.478;2022-08-04T07:01:26;22.30;99.90
8527;DHT22;4301;48.362;8.478;2022-08-04T07:03:55;22.60;99.90
8527;DHT22;4301;48.362;8.478;2022-08-04T07:06:22;22.80;99.90
8527;DHT22;4301;48.362;8.478;2022-08-04T07:08:50;23.30;99.90
8527;DHT22;4301;48.362;8.478;2022-08-04T07:11:19;23.70;99.90
8527;DHT22;4301;48.362;8.478;2022-08-04T07:13:46;24.20;99.90
8527;DHT22;4301;48.362;8.478;2022-08-04T07:16:15;24.60;99.90
8527;DHT22;4301;48.362;8.478;2022-08-04T07:18:42;25.00;99.90
8527;DHT22;4301;48.362;8.478;2022-08-04T07:21:20;25.40;99.90
8527;DHT22;4301;48.362;8.478;2022-08-04T07:23:48;25.80;99.90
8527;DHT22;4301;48.362;8.478;2022-08-04T07:26:15;26.10;99.90
8527;DHT22;4301;48.362;8.478;2022-08-04T07:28:44;26.40;99.90
8527;DHT22;4301;48.362;8.478;2022-08-04T07:31:14;26.70;99.90
8527;DHT22;4301;48.362;8.478;2022-08-04T07:33:43;27.10;99.90
8527;DHT22;4301;48.362;8.478;2022-08-04T07:36:12;27.40;99.90
8527;DHT22;4301;48.362;8.478;2022-08-04T07:38:40;27.60;99.90
8527;DHT22;4301;48.362;8.478;2022-08-04T07:41:07;27.90;99.90
8527;DHT22;4301;48.362;8.478;2022-08-04T07:43:35;28.10;99.90
8527;DHT22;4301;48.362;8.478;2022-08-04T07:46:03;28.30;99.90
8527;DHT22;4301;48.362;8.478;2022-08-04T07:48:30;28.50;99.90
8527;DHT22;4301;48.362;8.478;2022-08-04T07:50:57;28.80;99.90
8527;DHT22;4301;48.362;8.478;2022-08-04T07:53:27;29.10;99.90
8527;DHT22;4301;48.362;8.478;2022-08-04T07:55:55;29.30;99.70
8527;DHT22;4301;48.362;8.478;2022-08-04T07:58:23;29.40;97.80
8527;DHT22;4301;48.362;8.478;2022-08-04T08:00:50;29.40;96.20
8527;DHT22;4301;48.362;8.478;2022-08-04T08:03:18;29.50;95.70
8527;DHT22;4301;48.362;8.478;2022-08-04T08:05:46;29.80;95.00
8527;DHT22;4301;48.362;8.478;2022-08-04T08:08:13;29.90;93.20
8527;DHT22;4301;48.362;8.478;2022-08-04T08:10:46;30.20;90.60
8527;DHT22;4301;48.362;8.478;2022-08-04T08:13:14;30.40;89.40
8527;DHT22;4301;48.362;8.478;2022-08-04T08:15:44;30.50;87.90
8527;DHT22;4301;48.362;8.478;2022-08-04T08:18:11;30.70;86.50
8527;DHT22;4301;48.362;8.478;2022-08-04T08:20:38;30.70;87.30
8527;DHT22;4301;48.362;8.478;2022-08-04T08:23:07;31.00;85.40
8527;DHT22;4301;48.362;8.478;2022-08-04T08:25:34;31.30;82.10
8527;DHT22;4301;48.362;8.478;2022-08-04T08:28:03;31.40;78.60
8527;DHT22;4301;48.362;8.478;2022-08-04T08:30:31;31.60;78.10
8527;DHT22;4301;48.362;8.478;2022-08-04T08:33:04;31.60;75.30
8527;DHT22;4301;48.362;8.478;2022-08-04T08:35:35;31.70;72.10
8527;DHT22;4301;48.362;8.478;2022-08-04T08:38:06;31.90;72.40
8527;DHT22;4301;48.362;8.478;2022-08-04T08:40:43;32.10;70.80
8527;DHT22;4301;48.362;8.478;2022-08-04T08:46:40;32.10;69.90
8527;DHT22;4301;48.362;8.478;2022-08-04T08:55:36;32.50;66.20
8527;DHT22;4301;48.362;8.478;2022-08-04T08:58:26;32.60;67.50
8527;DHT22;4301;48.362;8.478;2022-08-04T09:01:05;32.60;65.90
8527;DHT22;4301;48.362;8.478;2022-08-04T09:04:25;32.90;63.50
8527;DHT22;4301;48.362;8.478;2022-08-04T09:07:01;33.30;62.80
8527;DHT22;4301;48.362;8.478;2022-08-04T09:09:46;33.60;60.30
8527;DHT22;4301;48.362;8.478;2022-08-04T09:12:21;33.70;62.10
8527;DHT22;4301;48.362;8.478;2022-08-04T09:14:56;33.90;61.30
8527;DHT22;4301;48.362;8.478;2022-08-04T09:17:29;33.90;59.20
8527;DHT22;4301;48.362;8.478;2022-08-04T09:20:00;34.10;58.30
8527;DHT22;4301;48.362;8.478;2022-08-04T09:22:35;34.20;57.90
8527;DHT22;4301;48.362;8.478;2022-08-04T09:25:10;34.20;57.90
8527;DHT22;4301;48.362;8.478;2022-08-04T09:27:45;34.50;57.00
8527;DHT22;4301;48.362;8.478;2022-08-04T09:30:17;34.80;58.80
8527;DHT22;4301;48.362;8.478;2022-08-04T09:32:51;34.90;58.50
8527;DHT22;4301;48.362;8.478;2022-08-04T09:35:29;35.40;57.50
8527;DHT22;4301;48.362;8.478;2022-08-04T09:38:08;35.80;58.40
8527;DHT22;4301;48.362;8.478;2022-08-04T09:40:40;36.10;56.50
8527;DHT22;4301;48.362;8.478;2022-08-04T09:43:19;36.10;56.80
8527;DHT22;4301;48.362;8.478;2022-08-04T09:45:58;36.00;54.80
8527;DHT22;4301;48.362;8.478;2022-08-04T09:48:33;36.10;56.00
8527;DHT22;4301;48.362;8.478;2022-08-04T09:51:08;36.10;56.80
8527;DHT22;4301;48.362;8.478;2022-08-04T09:53:53;35.90;55.30
8527;DHT22;4301;48.362;8.478;2022-08-04T09:56:27;36.00;54.70
8527;DHT22;4301;48.362;8.478;2022-08-04T09:59:03;35.80;54.40
8527;DHT22;4301;48.362;8.478;2022-08-04T10:01:36;36.20;54.60
8527;DHT22;4301;48.362;8.478;2022-08-04T10:04:07;36.10;55.20
8527;DHT22;4301;48.362;8.478;2022-08-04T10:06:47;36.00;54.40
8527;DHT22;4301;48.362;8.478;2022-08-04T10:09:42;35.60;54.10
8527;DHT22;4301;48.362;8.478;2022-08-04T10:12:25;35.70;55.40
8527;DHT22;4301;48.362;8.478;2022-08-04T10:15:05;35.70;55.20
8527;DHT22;4301;48.362;8.478;2022-08-04T10:17:44;35.70;54.40
8527;DHT22;4301;48.362;8.478;2022-08-04T10:20:21;35.30;54.00
8527;DHT22;4301;48.362;8.478;2022-08-04T10:23:00;35.20;53.80
8527;DHT22;4301;48.362;8.478;2022-08-04T10:25:37;35.30;54.50
8527;DHT22;4301;48.362;8.478;2022-08-04T10:28:11;34.80;54.60
8527;DHT22;4301;48.362;8.478;2022-08-04T10:30:41;34.90;53.90
8527;DHT22;4301;48.362;8.478;2022-08-04T10:33:20;34.80;52.80
8527;DHT22;4301;48.362;8.478;2022-08-04T10:35:51;34.70;52.90
8527;DHT22;4301;48.362;8.478;2022-08-04T10:38:24;34.60;52.50
8527;DHT22;4301;48.362;8.478;2022-08-04T10:40:59;34.60;54.10
8527;DHT22;4301;48.362;8.478;2022-08-04T10:43:38;34.70;52.80
8527;DHT22;4301;48.362;8.478;2022-08-04T10:46:09;34.90;52.10
8527;DHT22;4301;48.362;8.478;2022-08-04T10:48:44;35.20;54.00
8527;DHT22;4301;48.362;8.478;2022-08-04T10:51:23;35.30;53.50
8527;DHT22;4301;48.362;8.478;2022-08-04T10:53:56;35.00;51.80
8527;DHT22;4301;48.362;8.478;2022-08-04T10:56:31;34.70;55.80
8527;DHT22;4301;48.362;8.478;2022-08-04T10:59:01;34.90;52.90
8527;DHT22;4301;48.362;8.478;2022-08-04T11:01:31;35.30;53.40
8527;DHT22;4301;48.362;8.478;2022-08-04T11:04:04;35.00;51.40
8527;DHT22;4301;48.362;8.478;2022-08-04T11:06:34;34.90;54.50
8527;DHT22;4301;48.362;8.478;2022-08-04T11:09:02;34.60;54.40
8527;DHT22;4301;48.362;8.478;2022-08-04T11:11:35;34.30;53.90
8527;DHT22;4301;48.362;8.478;2022-08-04T11:14:06;34.40;55.00
8527;DHT22;4301;48.362;8.478;2022-08-04T11:16:38;34.60;53.60
8527;DHT22;4301;48.362;8.478;2022-08-04T11:19:16;34.70;53.40
8527;DHT22;4301;48.362;8.478;2022-08-04T11:21:51;35.00;52.70
8527;DHT22;4301;48.362;8.478;2022-08-04T11:24:25;34.90;52.00
8527;DHT22;4301;48.362;8.478;2022-08-04T11:26:59;35.10;52.50
8527;DHT22;4301;48.362;8.478;2022-08-04T11:29:34;35.00;51.20
8527;DHT22;4301;48.362;8.478;2022-08-04T11:32:03;35.00;52.40
8527;DHT22;4301;48.362;8.478;2022-08-04T11:34:33;35.10;50.90
8527;DHT22;4301;48.362;8.478;2022-08-04T11:37:08;35.20;51.00
8527;DHT22;4301;48.362;8.478;2022-08-04T11:39:51;34.90;48.90
8527;DHT22;4301;48.362;8.478;2022-08-04T11:42:22;34.60;50.00
8527;DHT22;4301;48.362;8.478;2022-08-04T11:44:51;34.80;48.80
8527;DHT22;4301;48.362;8.478;2022-08-04T11:47:27;34.70;47.70
8527;DHT22;4301;48.362;8.478;2022-08-04T11:50:02;34.80;47.40
8527;DHT22;4301;48.362;8.478;2022-08-04T11:52:32;35.00;45.60
8527;DHT22;4301;48.362;8.478;2022-08-04T11:55:04;35.20;45.00
8527;DHT22;4301;48.362;8.478;2022-08-04T11:57:32;34.90;44.70
8527;DHT22;4301;48.362;8.478;2022-08-04T12:00:00;35.10;45.00
8527;DHT22;4301;48.362;8.478;2022-08-04T12:02:58;35.00;46.80
8527;DHT22;4301;48.362;8.478;2022-08-04T12:05:31;34.90;47.10
8527;DHT22;4301;48.362;8.478;2022-08-04T12:08:11;35.00;47.50
8527;DHT22;4301;48.362;8.478;2022-08-04T12:10:53;35.20;45.30
8527;DHT22;4301;48.362;8.478;2022-08-04T12:13:27;35.30;46.40
8527;DHT22;4301;48.362;8.478;2022-08-04T12:16:02;35.10;48.30
8527;DHT22;4301;48.362;8.478;2022-08-04T12:18:38;35.10;48.60
8527;DHT22;4301;48.362;8.478;2022-08-04T12:21:13;35.20;48.00
8527;DHT22;4301;48.362;8.478;2022-08-04T12:23:42;35.30;47.20
8527;DHT22;4301;48.362;8.478;2022-08-04T12:26:14;35.20;45.50
8527;DHT22;4301;48.362;8.478;2022-08-04T12:28:44;35.00;46.90
8527;DHT22;4301;48.362;8.478;2022-08-04T12:31:18;35.00;48.50
8527;DHT22;4301;48.362;8.478;2022-08-04T12:33:50;34.70;50.10
8527;DHT22;4301;48.362;8.478;2022-08-04T12:36:26;34.90;45.20
8527;DHT22;4301;48.362;8.478;2022-08-04T12:38:58;34.90;45.50
8527;DHT22;4301;48.362;8.478;2022-08-04T12:41:31;35.30;45.90
8527;DHT22;4301;48.362;8.478;2022-08-04T12:44:05;35.40;42.40
8527;DHT22;4301;48.362;8.478;2022-08-04T12:46:33;35.80;47.50
8527;DHT22;4301;48.362;8.478;2022-08-04T12:49:02;35.40;43.30
8527;DHT22;4301;48.362;8.478;2022-08-04T12:51:36;34.80;45.90
8527;DHT22;4301;48.362;8.478;2022-08-04T12:54:04;34.80;45.80
8527;DHT22;4301;48.362;8.478;2022-08-04T12:56:32;35.20;43.70
8527;DHT22;4301;48.362;8.478;2022-08-04T12:59:03;35.40;44.80
8527;DHT22;4301;48.362;8.478;2022-08-04T13:01:31;35.40;47.70
8527;DHT22;4301;48.362;8.478;2022-08-04T13:04:02;35.40;47.70
8527;DHT22;4301;48.362;8.478;2022-08-04T13:06:32;35.50;47.40
8527;DHT22;4301;48.362;8.478;2022-08-04T13:09:04;35.60;46.70
8527;DHT22;4301;48.362;8.478;2022-08-04T13:11:38;35.60;48.10
8527;DHT22;4301;48.362;8.478;2022-08-04T13:14:07;35.50;49.20
8527;DHT22;4301;48.362;8.478;2022-08-04T13:16:35;35.40;45.50
8527;DHT22;4301;48.362;8.478;2022-08-04T13:19:06;35.30;47.80
8527;DHT22;4301;48.362;8.478;2022-08-04T13:21:40;35.30;48.80
8527;DHT22;4301;48.362;8.478;2022-08-04T13:24:11;35.50;48.10
8527;DHT22;4301;48.362;8.478;2022-08-04T13:26:49;35.60;45.70
8527;DHT22;4301;48.362;8.478;2022-08-04T13:29:19;35.70;45.60
8527;DHT22;4301;48.362;8.478;2022-08-04T13:31:47;35.50;45.70
8527;DHT22;4301;48.362;8.478;2022-08-04T13:34:15;35.30;45.10
8527;DHT22;4301;48.362;8.478;2022-08-04T13:36:45;35.20;45.50
8527;DHT22;4301;48.362;8.478;2022-08-04T13:39:16;35.10;45.00
8527;DHT22;4301;48.362;8.478;2022-08-04T13:41:47;35.10;46.50
8527;DHT22;4301;48.362;8.478;2022-08-04T13:44:19;35.20;47.90
8527;DHT22;4301;48.362;8.478;2022-08-04T13:46:48;34.90;47.20
8527;DHT22;4301;48.362;8.478;2022-08-04T13:49:17;35.10;46.90
8527;DHT22;4301;48.362;8.478;2022-08-04T13:51:51;35.30;44.00
8527;DHT22;4301;48.362;8.478;2022-08-04T13:54:19;35.40;47.30
8527;DHT22;4301;48.362;8.478;2022-08-04T13:56:49;35.20;46.10
8527;DHT22;4301;48.362;8.478;2022-08-04T13:59:17;35.30;46.50
8527;DHT22;4301;48.362;8.478;2022-08-04T14:01:56;35.50;46.50
8527;DHT22;4301;48.362;8.478;2022-08-04T14:04:25;35.50;48.60
8527;DHT22;4301;48.362;8.478;2022-08-04T14:07:00;35.50;44.80
8527;DHT22;4301;48.362;8.478;2022-08-04T14:09:31;35.50;43.70
8527;DHT22;4301;48.362;8.478;2022-08-04T14:12:04;35.60;45.50
8527;DHT22;4301;48.362;8.478;2022-08-04T14:14:34;35.50;45.60
8527;DHT22;4301;48.362;8.478;2022-08-04T14:17:04;35.50;43.70
8527;DHT22;4301;48.362;8.478;2022-08-04T14:19:49;35.50;43.70
8527;DHT22;4301;48.362;8.478;2022-08-04T14:22:36;35.50;45.60
8527;DHT22;4301;48.362;8.478;2022-08-04T14:25:06;35.30;42.90
8527;DHT22;4301;48.362;8.478;2022-08-04T14:27:45;35.30;42.00
8527;DHT22;4301;48.362;8.478;2022-08-04T14:30:23;35.30;42.40
8527;DHT22;4301;48.362;8.478;2022-08-04T14:32:59;35.30;41.40
8527;DHT22;4301;48.362;8.478;2022-08-04T14:35:27;35.20;40.50
8527;DHT22;4301;48.362;8.478;2022-08-04T14:37:58;35.20;40.00
8527;DHT22;4301;48.362;8.478;2022-08-04T14:40:26;35.30;43.70
8527;DHT22;4301;48.362;8.478;2022-08-04T14:42:54;35.40;40.40
8527;DHT22;4301;48.362;8.478;2022-08-04T14:45:29;35.20;40.00
8527;DHT22;4301;48.362;8.478;2022-08-04T14:47:57;35.10;43.60
8527;DHT22;4301;48.362;8.478;2022-08-04T14:50:38;35.10;40.10
8527;DHT22;4301;48.362;8.478;2022-08-04T14:53:09;34.90;41.40
8527;DHT22;4301;48.362;8.478;2022-08-04T14:55:37;35.10;39.50
8527;DHT22;4301;48.362;8.478;2022-08-04T14:58:04;35.20;40.10
8527;DHT22;4301;48.362;8.478;2022-08-04T15:00:34;35.30;39.60
8527;DHT22;4301;48.362;8.478;2022-08-04T15:03:04;35.30;39.90
8527;DHT22;4301;48.362;8.478;2022-08-04T15:05:33;35.30;40.00
8527;DHT22;4301;48.362;8.478;2022-08-04T15:08:00;35.30;42.40
8527;DHT22;4301;48.362;8.478;2022-08-04T15:10:29;35.30;40.50
8527;DHT22;4301;48.362;8.478;2022-08-04T15:12:56;35.30;40.80
8527;DHT22;4301;48.362;8.478;2022-08-04T15:15:24;35.30;42.50
8527;DHT22;4301;48.362;8.478;2022-08-04T15:17:51;35.50;40.10
8527;DHT22;4301;48.362;8.478;2022-08-04T15:20:20;35.50;40.40
8527;DHT22;4301;48.362;8.478;2022-08-04T15:22:48;35.40;42.00
8527;DHT22;4301;48.362;8.478;2022-08-04T15:25:15;35.20;41.60
8527;DHT22;4301;48.362;8.478;2022-08-04T15:27:47;35.20;38.50
8527;DHT22;4301;48.362;8.478;2022-08-04T15:30:16;35.50;37.40
8527;DHT22;4301;48.362;8.478;2022-08-04T15:32:49;35.50;40.20
8527;DHT22;4301;48.362;8.478;2022-08-04T15:35:19;35.70;39.40
8527;DHT22;4301;48.362;8.478;2022-08-04T15:37:53;35.80;37.80
8527;DHT22;4301;48.362;8.478;2022-08-04T15:40:27;35.70;37.80
8527;DHT22;4301;48.362;8.478;2022-08-04T15:43:23;35.50;35.90
8527;DHT22;4301;48.362;8.478;2022-08-04T15:45:56;35.40;36.10
8527;DHT22;4301;48.362;8.478;2022-08-04T15:48:25;35.50;38.40
8527;DHT22;4301;48.362;8.478;2022-08-04T15:51:01;35.40;38.60
8527;DHT22;4301;48.362;8.478;2022-08-04T15:53:31;35.40;39.30
8527;DHT22;4301;48.362;8.478;2022-08-04T15:55:58;35.50;39.60
8527;DHT22;4301;48.362;8.478;2022-08-04T15:58:47;35.30;41.20
8527;DHT22;4301;48.362;8.478;2022-08-04T16:01:15;35.10;38.20
8527;DHT22;4301;48.362;8.478;2022-08-04T16:03:47;35.00;40.10
8527;DHT22;4301;48.362;8.478;2022-08-04T16:06:39;34.90;40.60
8527;DHT22;4301;48.362;8.478;2022-08-04T16:09:06;34.80;40.50
8527;DHT22;4301;48.362;8.478;2022-08-04T16:11:36;34.60;41.10
8527;DHT22;4301;48.362;8.478;2022-08-04T16:14:10;34.70;38.30
8527;DHT22;4301;48.362;8.478;2022-08-04T16:16:47;34.70;39.60
8527;DHT22;4301;48.362;8.478;2022-08-04T16:19:24;34.70;38.20
8527;DHT22;4301;48.362;8.478;2022-08-04T16:21:55;34.60;38.20
8527;DHT22;4301;48.362;8.478;2022-08-04T16:24:27;34.60;39.30
8527;DHT22;4301;48.362;8.478;2022-08-04T16:26:56;34.40;40.40
8527;DHT22;4301;48.362;8.478;2022-08-04T16:29:34;34.20;40.30
8527;DHT22;4301;48.362;8.478;2022-08-04T16:32:13;34.20;41.60
8527;DHT22;4301;48.362;8.478;2022-08-04T16:34:44;34.30;38.10
8527;DHT22;4301;48.362;8.478;2022-08-04T16:37:13;34.30;40.10
8527;DHT22;4301;48.362;8.478;2022-08-04T16:39:41;34.30;37.80
8527;DHT22;4301;48.362;8.478;2022-08-04T16:42:28;34.20;37.60
8527;DHT22;4301;48.362;8.478;2022-08-04T16:45:02;34.10;37.50
8527;DHT22;4301;48.362;8.478;2022-08-04T16:48:01;33.90;39.60
8527;DHT22;4301;48.362;8.478;2022-08-04T16:50:33;33.80;40.10
8527;DHT22;4301;48.362;8.478;2022-08-04T16:53:11;33.80;37.20
8527;DHT22;4301;48.362;8.478;2022-08-04T16:55:38;33.80;37.80
8527;DHT22;4301;48.362;8.478;2022-08-04T16:58:05;33.80;39.10
8527;DHT22;4301;48.362;8.478;2022-08-04T17:00:35;33.60;37.30
8527;DHT22;4301;48.362;8.478;2022-08-04T17:03:02;33.60;39.10
8527;DHT22;4301;48.362;8.478;2022-08-04T17:05:30;33.60;37.40
8527;DHT22;4301;48.362;8.478;2022-08-04T17:07:58;33.50;37.30
8527;DHT22;4301;48.362;8.478;2022-08-04T17:10:34;33.50;37.60
8527;DHT22;4301;48.362;8.478;2022-08-04T17:15:48;33.30;41.20
8527;DHT22;4301;48.362;8.478;2022-08-04T17:18:18;33.20;38.40
8527;DHT22;4301;48.362;8.478;2022-08-04T17:20:45;33.20;38.90
8527;DHT22;4301;48.362;8.478;2022-08-04T17:23:23;33.00;40.80
8527;DHT22;4301;48.362;8.478;2022-08-04T17:25:51;32.90;41.80
8527;DHT22;4301;48.362;8.478;2022-08-04T17:28:18;32.80;39.30
8527;DHT22;4301;48.362;8.478;2022-08-04T17:30:48;32.80;41.40